Time,TemperatureF,DewpointF,PressureIn,WindDirection,WindDirectionDegrees,WindSpeedMPH,WindSpeedGustMPH,Humidity,HourlyPrecipIn,Conditions,Clouds,dailyrainin,SoftwareType,DateUTC
2013-06-11 00:02:00,50.0,47.0,30.05,NNE,17,3.0,7.0,90,0.00,,,0.00,,2013-06-11 07:02:00,
2013-06-11 00:12:00,50.0,47.0,30.05,NE,44,3.0,7.0,91,0.00,,,0.00,,2013-06-11 07:12:00,
2013-06-11 00:22:00,50.0,47.0,30.05,NE,44,3.0,7.0,91,0.00,,,0.00,,2013-06-11 07:22:00,
2013-06-11 00:32:00,50.0,47.0,30.05,NE,35,2.0,7.0,91,0.00,,,0.00,,2013-06-11 07:32:00,
2013-06-11 00:42:00,50.0,47.0,30.05,NE,48,2.0,5.0,90,0.00,,,0.00,,2013-06-11 07:42:00,
2013-06-11 00:52:00,50.0,47.0,30.05,NE,48,2.0,5.0,90,0.00,,,0.00,,2013-06-11 07:52:00,
2013-06-11 01:02:00,50.0,47.0,30.05,NNE,26,2.0,7.0,90,0.00,,,0.00,,2013-06-11 08:02:00,
2013-06-11 01:11:00,50.0,47.0,30.05,NNE,26,2.0,7.0,90,0.00,,,0.00,,2013-06-11 08:11:00,
2013-06-11 01:22:00,50.0,47.0,30.05,NNE,25,2.0,7.0,91,0.00,,,0.00,,2013-06-11 08:22:00,
2013-06-11 01:32:00,50.0,47.0,30.05,NNE,29,2.0,4.0,90,0.00,,,0.00,,2013-06-11 08:32:00,
2013-06-11 01:42:00,50.0,47.0,30.05,NNE,29,2.0,4.0,90,0.00,,,0.00,,2013-06-11 08:42:00,
2013-06-11 01:52:00,50.0,47.0,30.05,NE,38,2.0,5.0,90,0.00,,,0.00,,2013-06-11 08:52:00,
2013-06-11 02:01:00,51.0,48.0,30.05,NNE,23,0.0,4.0,90,0.00,,,0.00,,2013-06-11 09:01:00,
2013-06-11 02:11:00,51.0,48.0,30.05,NNE,23,0.0,4.0,90,0.00,,,0.00,,2013-06-11 09:11:00,
2013-06-11 02:22:00,51.0,48.0,30.06,NNE,16,2.0,7.0,90,0.00,,,0.00,,2013-06-11 09:22:00,
2013-06-11 02:33:00,51.0,48.0,30.06,NNE,15,0.0,5.0,90,0.00,,,0.00,,2013-06-11 09:33:00,
2013-06-11 02:43:00,51.0,48.0,30.06,NNE,15,0.0,5.0,90,0.00,,,0.00,,2013-06-11 09:43:00,
2013-06-11 02:53:00,50.0,47.0,30.06,NNE,25,0.0,2.0,90,0.00,,,0.00,,2013-06-11 09:53:00,
2013-06-11 03:03:00,50.0,47.0,30.07,NNE,23,0.0,0.0,90,0.00,,,0.00,,2013-06-11 10:03:00,
2013-06-11 03:12:00,50.0,47.0,30.07,NNE,23,0.0,0.0,90,0.00,,,0.00,,2013-06-11 10:12:00,
2013-06-11 03:22:00,50.0,47.0,30.07,NE,46,0.0,3.0,90,0.00,,,0.00,,2013-06-11 10:22:00,
2013-06-11 03:32:00,50.0,47.0,30.07,NE,46,0.0,0.0,90,0.00,,,0.00,,2013-06-11 10:32:00,
2013-06-11 03:42:00,50.0,47.0,30.07,NE,46,0.0,0.0,90,0.00,,,0.00,,2013-06-11 10:42:00,
2013-06-11 03:52:00,50.0,47.0,30.07,NE,51,0.0,3.0,90,0.00,,,0.00,,2013-06-11 10:52:00,
2013-06-11 04:02:00,50.0,47.0,30.07,NNE,31,0.0,3.0,90,0.00,,,0.00,,2013-06-11 11:02:00,
2013-06-11 04:12:00,50.0,47.0,30.07,NNE,31,0.0,3.0,90,0.00,,,0.00,,2013-06-11 11:12:00,
2013-06-11 04:22:00,49.0,46.0,30.07,North,9,0.0,2.0,91,0.00,,,0.00,,2013-06-11 11:22:00,
2013-06-11 04:32:00,49.0,46.0,30.08,North,11,0.0,0.0,91,0.00,,,0.00,,2013-06-11 11:32:00,
2013-06-11 04:41:00,49.0,46.0,30.08,North,11,0.0,0.0,91,0.00,,,0.00,,2013-06-11 11:41:00,
2013-06-11 04:52:00,49.0,46.0,30.07,NNE,25,0.0,0.0,91,0.00,,,0.00,,2013-06-11 11:52:00,
2013-06-11 05:01:00,49.0,46.0,30.08,NNE,25,0.0,0.0,91,0.00,,,0.00,,2013-06-11 12:01:00,
2013-06-11 05:12:00,49.0,46.0,30.08,NNE,25,0.0,0.0,91,0.00,,,0.00,,2013-06-11 12:12:00,
2013-06-11 05:22:00,49.0,46.0,30.08,NNE,25,0.0,0.0,91,0.00,,,0.00,,2013-06-11 12:22:00,
2013-06-11 05:32:00,49.0,46.0,30.08,NNE,25,0.0,0.0,91,0.00,,,0.00,,2013-06-11 12:32:00,
2013-06-11 05:42:00,48.0,45.0,30.09,NNE,25,0.0,1.0,91,0.00,,,0.00,,2013-06-11 12:42:00,
2013-06-11 05:52:00,48.0,45.0,30.09,NNE,25,0.0,1.0,91,0.00,,,0.00,,2013-06-11 12:52:00,
2013-06-11 06:02:00,48.0,45.0,30.09,NNE,27,0.0,1.0,91,0.00,,,0.00,,2013-06-11 13:02:00,
2013-06-11 06:11:00,48.0,45.0,30.09,NNE,27,0.0,1.0,91,0.00,,,0.00,,2013-06-11 13:11:00,
2013-06-11 06:22:00,48.0,45.0,30.09,NNE,27,0.0,0.0,91,0.00,,,0.00,,2013-06-11 13:22:00,
2013-06-11 06:32:00,49.0,46.0,30.10,NNE,27,0.0,0.0,91,0.00,,,0.00,,2013-06-11 13:32:00,
2013-06-11 06:42:00,49.0,46.0,30.10,NNE,27,0.0,0.0,91,0.00,,,0.00,,2013-06-11 13:42:00,
2013-06-11 06:52:00,49.0,47.0,30.10,NNE,27,0.0,0.0,92,0.00,,,0.00,,2013-06-11 13:52:00,
2013-06-11 07:02:00,49.0,47.0,30.10,NNE,27,0.0,0.0,92,0.00,,,0.00,,2013-06-11 14:02:00,
2013-06-11 07:12:00,49.0,47.0,30.10,NNE,27,0.0,0.0,92,0.00,,,0.00,,2013-06-11 14:12:00,
2013-06-11 07:22:00,49.0,47.0,30.11,SW,216,4.0,5.0,92,0.00,,,0.00,,2013-06-11 14:22:00,
2013-06-11 07:32:00,49.0,47.0,30.11,SW,219,2.0,4.0,92,0.00,,,0.00,,2013-06-11 14:32:00,
2013-06-11 07:42:00,49.0,47.0,30.11,SW,219,2.0,4.0,92,0.00,,,0.00,,2013-06-11 14:42:00,
2013-06-11 07:53:00,49.0,47.0,30.11,South,186,2.0,4.0,92,0.00,,,0.00,,2013-06-11 14:53:00,
2013-06-11 08:02:00,49.0,47.0,30.11,South,186,0.0,2.0,92,0.00,,,0.00,,2013-06-11 15:02:00,
2013-06-11 08:12:00,49.0,47.0,30.11,South,186,0.0,2.0,92,0.00,,,0.00,,2013-06-11 15:12:00,
2013-06-11 08:22:00,50.0,48.0,30.11,South,186,1.0,3.0,93,0.00,,,0.00,,2013-06-11 15:22:00,
2013-06-11 08:32:00,50.0,48.0,30.11,SSW,197,4.0,6.0,93,0.00,,,0.00,,2013-06-11 15:32:00,
2013-06-11 08:42:00,50.0,48.0,30.11,SSW,197,4.0,6.0,93,0.00,,,0.00,,2013-06-11 15:42:00,
2013-06-11 08:53:00,50.0,48.0,30.11,SSW,193,5.0,7.0,92,0.00,,,0.00,,2013-06-11 15:53:00,
2013-06-11 09:02:00,50.0,48.0,30.12,SW,222,4.0,8.0,93,0.00,,,0.00,,2013-06-11 16:02:00,
2013-06-11 09:12:00,50.0,48.0,30.12,SW,222,4.0,8.0,93,0.00,,,0.00,,2013-06-11 16:12:00,
2013-06-11 09:22:00,50.0,48.0,30.13,SW,214,5.0,9.0,92,0.00,,,0.00,,2013-06-11 16:22:00,
2013-06-11 09:32:00,51.0,49.0,30.13,South,189,4.0,7.0,92,0.00,,,0.00,,2013-06-11 16:32:00,
2013-06-11 09:42:00,51.0,49.0,30.13,South,189,4.0,7.0,92,0.00,,,0.00,,2013-06-11 16:42:00,
2013-06-11 09:52:00,52.0,49.0,30.13,SSW,198,4.0,6.0,91,0.00,,,0.00,,2013-06-11 16:52:00,
2013-06-11 10:02:00,52.0,49.0,30.13,SSW,196,4.0,6.0,91,0.00,,,0.00,,2013-06-11 17:02:00,
2013-06-11 10:12:00,52.0,49.0,30.13,SSW,196,4.0,6.0,91,0.00,,,0.00,,2013-06-11 17:12:00,
2013-06-11 10:22:00,53.0,50.0,30.14,SSW,207,6.0,8.0,90,0.00,,,0.00,,2013-06-11 17:22:00,
2013-06-11 10:32:00,54.0,51.0,30.14,SSW,205,5.0,7.0,89,0.00,,,0.00,,2013-06-11 17:32:00,
2013-06-11 10:42:00,54.0,51.0,30.14,SSW,204,5.0,7.0,89,0.00,,,0.00,,2013-06-11 17:42:00,
2013-06-11 10:52:00,54.0,51.0,30.14,SSW,204,5.0,7.0,89,0.00,,,0.00,,2013-06-11 17:52:00,
2013-06-11 11:02:00,55.0,51.0,30.14,SSW,200,5.0,8.0,87,0.00,,,0.00,,2013-06-11 18:02:00,
2013-06-11 11:11:00,55.0,51.0,30.14,SSW,200,5.0,8.0,87,0.00,,,0.00,,2013-06-11 18:11:00,
2013-06-11 11:22:00,54.0,51.0,30.15,SSW,200,5.0,7.0,89,0.00,,,0.00,,2013-06-11 18:22:00,
2013-06-11 11:32:00,55.0,52.0,30.16,SSW,202,6.0,7.0,89,0.00,,,0.00,,2013-06-11 18:32:00,
2013-06-11 11:42:00,55.0,52.0,30.16,SSW,202,6.0,7.0,89,0.00,,,0.00,,2013-06-11 18:42:00,
2013-06-11 11:52:00,55.0,51.0,30.16,SSW,202,6.0,8.0,87,0.00,,,0.00,,2013-06-11 18:52:00,
2013-06-11 12:11:00,55.0,52.0,30.16,SSW,200,6.0,8.0,88,0.00,,,0.00,,2013-06-11 19:11:00,
2013-06-11 12:21:00,56.0,52.0,30.17,SSW,201,5.0,8.0,88,0.00,,,0.00,,2013-06-11 19:21:00,
2013-06-11 12:32:00,56.0,52.0,30.17,SSW,204,5.0,7.0,87,0.00,,,0.00,,2013-06-11 19:32:00,
2013-06-11 12:42:00,56.0,52.0,30.17,SSW,204,5.0,7.0,87,0.00,,,0.00,,2013-06-11 19:42:00,
2013-06-11 12:52:00,56.0,52.0,30.17,SSW,204,5.0,7.0,87,0.00,,,0.00,,2013-06-11 19:52:00,
2013-06-11 13:02:00,57.0,53.0,30.17,SSW,205,4.0,6.0,86,0.00,,,0.00,,2013-06-11 20:02:00,
2013-06-11 13:12:00,57.0,53.0,30.17,SSW,205,4.0,6.0,86,0.00,,,0.00,,2013-06-11 20:12:00,
2013-06-11 13:21:00,57.0,53.0,30.17,SSW,205,4.0,5.0,85,0.00,,,0.00,,2013-06-11 20:21:00,
2013-06-11 13:32:00,57.0,52.0,30.17,SSW,206,3.0,5.0,84,0.00,,,0.00,,2013-06-11 20:32:00,
2013-06-11 13:42:00,57.0,52.0,30.17,SSW,206,3.0,5.0,84,0.00,,,0.00,,2013-06-11 20:42:00,
2013-06-11 13:52:00,57.0,53.0,30.17,SW,216,4.0,5.0,86,0.00,,,0.00,,2013-06-11 20:52:00,
2013-06-11 14:02:00,57.0,53.0,30.18,SSW,209,4.0,6.0,86,0.00,,,0.00,,2013-06-11 21:02:00,
2013-06-11 14:12:00,57.0,53.0,30.18,SSW,209,4.0,6.0,86,0.00,,,0.00,,2013-06-11 21:12:00,
2013-06-11 14:22:00,58.0,54.0,30.18,SSW,210,4.0,6.0,86,0.00,,,0.00,,2013-06-11 21:22:00,
2013-06-11 14:33:00,58.0,54.0,30.18,SSW,210,3.0,5.0,85,0.00,,,0.00,,2013-06-11 21:33:00,
2013-06-11 14:42:00,58.0,54.0,30.18,SSW,210,3.0,5.0,85,0.00,,,0.00,,2013-06-11 21:42:00,
2013-06-11 14:52:00,58.0,53.0,30.19,SSW,210,2.0,5.0,84,0.00,,,0.00,,2013-06-11 21:52:00,
2013-06-11 15:03:00,59.0,53.0,30.18,SSW,210,3.0,4.0,81,0.00,,,0.00,,2013-06-11 22:03:00,
2013-06-11 15:12:00,59.0,53.0,30.18,SSW,210,3.0,4.0,81,0.00,,,0.00,,2013-06-11 22:12:00,
2013-06-11 15:22:00,59.0,53.0,30.19,SSW,210,1.0,3.0,81,0.00,,,0.00,,2013-06-11 22:22:00,
2013-06-11 15:32:00,59.0,53.0,30.19,SSW,210,2.0,3.0,81,0.00,,,0.00,,2013-06-11 22:32:00,
2013-06-11 15:42:00,59.0,53.0,30.19,SSW,210,2.0,3.0,81,0.00,,,0.00,,2013-06-11 22:42:00,
2013-06-11 15:52:00,59.0,53.0,30.19,SSW,210,2.0,4.0,80,0.00,,,0.00,,2013-06-11 22:52:00,
2013-06-11 16:02:00,59.0,53.0,30.19,SSW,210,2.0,3.0,81,0.00,,,0.00,,2013-06-11 23:02:00,
2013-06-11 16:12:00,59.0,53.0,30.19,SSW,210,2.0,3.0,81,0.00,,,0.00,,2013-06-11 23:12:00,
2013-06-11 16:22:00,58.0,52.0,30.19,SSW,210,2.0,3.0,81,0.00,,,0.00,,2013-06-11 23:22:00,
2013-06-11 16:32:00,58.0,53.0,30.19,SSW,210,3.0,4.0,82,0.00,,,0.00,,2013-06-11 23:32:00,
2013-06-11 16:42:00,58.0,53.0,30.19,SSW,210,3.0,4.0,82,0.00,,,0.00,,2013-06-11 23:42:00,
2013-06-11 16:52:00,57.0,52.0,30.19,SW,216,3.0,5.0,84,0.00,,,0.00,,2013-06-11 23:52:00,
2013-06-11 17:02:00,57.0,52.0,30.19,SW,216,2.0,4.0,84,0.00,,,0.00,,2013-06-12 00:02:00,
2013-06-11 17:12:00,57.0,52.0,30.19,SW,216,2.0,4.0,84,0.00,,,0.00,,2013-06-12 00:12:00,
2013-06-11 17:22:00,58.0,53.0,30.19,SW,216,0.0,3.0,83,0.00,,,0.00,,2013-06-12 00:22:00,
2013-06-11 17:32:00,58.0,53.0,30.19,SW,216,0.0,3.0,83,0.00,,,0.00,,2013-06-12 00:32:00,
2013-06-11 17:42:00,58.0,53.0,30.19,SW,216,0.0,3.0,83,0.00,,,0.00,,2013-06-12 00:42:00,
2013-06-11 17:52:00,59.0,54.0,30.19,SW,216,1.0,3.0,83,0.00,,,0.00,,2013-06-12 00:52:00,
2013-06-11 18:02:00,59.0,54.0,30.19,SW,216,1.0,3.0,82,0.00,,,0.00,,2013-06-12 01:02:00,
2013-06-11 18:12:00,59.0,54.0,30.19,SW,216,1.0,3.0,82,0.00,,,0.00,,2013-06-12 01:12:00,
2013-06-11 18:22:00,58.0,52.0,30.19,SW,216,0.0,2.0,81,0.00,,,0.00,,2013-06-12 01:22:00,
2013-06-11 18:32:00,57.0,52.0,30.18,SW,216,0.0,1.0,84,0.00,,,0.00,,2013-06-12 01:32:00,
2013-06-11 18:42:00,57.0,52.0,30.18,SW,216,0.0,1.0,84,0.00,,,0.00,,2013-06-12 01:42:00,
2013-06-11 18:52:00,57.0,52.0,30.19,SW,216,0.0,2.0,83,0.00,,,0.00,,2013-06-12 01:52:00,
2013-06-11 19:02:00,57.0,52.0,30.19,SW,216,0.0,2.0,83,0.00,,,0.00,,2013-06-12 02:02:00,
2013-06-11 19:12:00,57.0,52.0,30.19,SW,216,0.0,2.0,83,0.00,,,0.00,,2013-06-12 02:12:00,
2013-06-11 19:22:00,56.0,51.0,30.19,SW,216,0.0,1.0,84,0.00,,,0.00,,2013-06-12 02:22:00,
2013-06-11 19:32:00,56.0,52.0,30.19,WSW,240,0.0,3.0,85,0.00,,,0.00,,2013-06-12 02:32:00,
2013-06-11 19:42:00,56.0,52.0,30.19,WSW,240,0.0,1.0,86,0.00,,,0.00,,2013-06-12 02:42:00,
2013-06-11 19:52:00,56.0,52.0,30.19,WSW,240,0.0,1.0,86,0.00,,,0.00,,2013-06-12 02:52:00,
2013-06-11 20:02:00,55.0,51.0,30.19,WSW,241,0.0,1.0,86,0.00,,,0.00,,2013-06-12 03:02:00,
2013-06-11 20:12:00,55.0,51.0,30.19,WSW,241,0.0,1.0,86,0.00,,,0.00,,2013-06-12 03:12:00,
2013-06-11 20:22:00,55.0,51.0,30.18,WSW,241,0.0,0.0,86,0.00,,,0.00,,2013-06-12 03:22:00,
2013-06-11 20:32:00,55.0,51.0,30.18,WSW,242,0.0,1.0,86,0.00,,,0.00,,2013-06-12 03:32:00,
2013-06-11 20:42:00,55.0,51.0,30.18,WSW,242,0.0,1.0,86,0.00,,,0.00,,2013-06-12 03:42:00,
2013-06-11 20:53:00,54.0,50.0,30.18,WSW,242,0.0,0.0,86,0.00,,,0.00,,2013-06-12 03:53:00,
2013-06-11 21:02:00,54.0,50.0,30.18,WSW,242,0.0,1.0,86,0.00,,,0.00,,2013-06-12 04:02:00,
2013-06-11 21:12:00,54.0,50.0,30.18,WSW,242,0.0,1.0,86,0.00,,,0.00,,2013-06-12 04:12:00,
2013-06-11 21:22:00,54.0,50.0,30.18,WSW,244,0.0,2.0,87,0.00,,,0.00,,2013-06-12 04:22:00,
2013-06-11 21:33:00,53.0,49.0,30.18,WSW,244,0.0,1.0,87,0.00,,,0.00,,2013-06-12 04:33:00,
2013-06-11 21:42:00,53.0,49.0,30.18,WSW,244,0.0,1.0,87,0.00,,,0.00,,2013-06-12 04:42:00,
2013-06-11 21:52:00,53.0,50.0,30.18,WSW,244,0.0,0.0,88,0.00,,,0.00,,2013-06-12 04:52:00,
2013-06-11 22:02:00,52.0,49.0,30.19,WSW,244,0.0,0.0,88,0.00,,,0.00,,2013-06-12 05:02:00,
2013-06-11 22:12:00,52.0,49.0,30.19,WSW,244,0.0,0.0,88,0.00,,,0.00,,2013-06-12 05:12:00,
2013-06-11 22:22:00,52.0,49.0,30.19,WSW,244,0.0,0.0,88,0.00,,,0.00,,2013-06-12 05:22:00,
2013-06-11 22:32:00,51.0,48.0,30.19,WSW,244,0.0,0.0,89,0.00,,,0.00,,2013-06-12 05:32:00,
2013-06-11 22:42:00,51.0,48.0,30.19,WSW,244,0.0,0.0,89,0.00,,,0.00,,2013-06-12 05:42:00,
2013-06-11 22:52:00,51.0,48.0,30.19,WSW,244,0.0,0.0,89,0.00,,,0.00,,2013-06-12 05:52:00,
2013-06-11 23:02:00,51.0,48.0,30.19,WSW,244,0.0,0.0,89,0.00,,,0.00,,2013-06-12 06:02:00,
2013-06-11 23:12:00,51.0,48.0,30.19,WSW,244,0.0,0.0,89,0.00,,,0.00,,2013-06-12 06:12:00,
2013-06-11 23:22:00,51.0,48.0,30.19,WSW,244,0.0,0.0,89,0.00,,,0.00,,2013-06-12 06:22:00,
2013-06-11 23:32:00,51.0,48.0,30.19,WSW,244,0.0,0.0,90,0.00,,,0.00,,2013-06-12 06:32:00,
2013-06-11 23:42:00,51.0,48.0,30.19,WSW,244,0.0,0.0,90,0.00,,,0.00,,2013-06-12 06:42:00,
2013-06-11 23:52:00,51.0,48.0,30.19,WSW,244,0.0,0.0,90,0.00,,,0.00,,2013-06-12 06:52:00,